sensor_id;sensor_type;location;lat;lon;timestamp;P1;durP1;ratioP1;P2;durP2;ratioP2
54897;SDS011;40800;52.704;6.398;2023-03-01T00:02:18;16.93;;;14.83;;
54897;SDS011;40800;52.704;6.398;2023-03-01T00:04:44;21.65;;;14.57;;
54897;SDS011;40800;52.704;6.398;2023-03-01T00:07:10;20.88;;;15.93;;
54897;SDS011;40800;52.704;6.398;2023-03-01T00:09:36;17.42;;;14.85;;
54897;SDS011;40800;52.704;6.398;2023-03-01T00:12:02;30.85;;;15.55;;
54897;SDS011;40800;52.704;6.398;2023-03-01T00:14:29;26.73;;;15.27;;
54897;SDS011;40800;52.704;6.398;2023-03-01T00:16:54;25.83;;;15.32;;
54897;SDS011;40800;52.704;6.398;2023-03-01T00:19:20;21.23;;;15.48;;
54897;SDS011;40800;52.704;6.398;2023-03-01T00:21:47;25.23;;;16.15;;
54897;SDS011;40800;52.704;6.398;2023-03-01T00:24:13;23.70;;;16.07;;
54897;SDS011;40800;52.704;6.398;2023-03-01T00:26:38;18.45;;;15.70;;
54897;SDS011;40800;52.704;6.398;2023-03-01T00:29:04;25.13;;;16.77;;
54897;SDS011;40800;52.704;6.398;2023-03-01T00:31:31;19.55;;;17.52;;
54897;SDS011;40800;52.704;6.398;2023-03-01T00:33:59;22.50;;;17.77;;
54897;SDS011;40800;52.704;6.398;2023-03-01T00:36:27;19.33;;;17.33;;
54897;SDS011;40800;52.704;6.398;2023-03-01T00:38:55;20.33;;;18.30;;
54897;SDS011;40800;52.704;6.398;2023-03-01T00:41:21;19.67;;;17.57;;
54897;SDS011;40800;52.704;6.398;2023-03-01T00:43:48;20.27;;;18.17;;
54897;SDS011;40800;52.704;6.398;2023-03-01T00:46:15;20.70;;;18.10;;
54897;SDS011;40800;52.704;6.398;2023-03-01T00:48:43;20.85;;;18.67;;
54897;SDS011;40800;52.704;6.398;2023-03-01T00:53:36;21.70;;;18.92;;
54897;SDS011;40800;52.704;6.398;2023-03-01T00:56:02;21.33;;;19.05;;
54897;SDS011;40800;52.704;6.398;2023-03-01T00:58:29;32.97;;;19.85;;
54897;SDS011;40800;52.704;6.398;2023-03-01T01:00:55;36.33;;;21.60;;
54897;SDS011;40800;52.704;6.398;2023-03-01T01:03:21;34.50;;;21.55;;
54897;SDS011;40800;52.704;6.398;2023-03-01T01:05:48;35.47;;;20.98;;
54897;SDS011;40800;52.704;6.398;2023-03-01T01:08:13;36.28;;;21.50;;
54897;SDS011;40800;52.704;6.398;2023-03-01T01:10:39;25.73;;;22.17;;
54897;SDS011;40800;52.704;6.398;2023-03-01T01:13:05;25.70;;;19.60;;
54897;SDS011;40800;52.704;6.398;2023-03-01T01:15:34;27.95;;;20.77;;
54897;SDS011;40800;52.704;6.398;2023-03-01T01:17:59;23.25;;;20.83;;
54897;SDS011;40800;52.704;6.398;2023-03-01T01:20:26;25.05;;;21.92;;
54897;SDS011;40800;52.704;6.398;2023-03-01T01:22:51;25.17;;;21.38;;
54897;SDS011;40800;52.704;6.398;2023-03-01T01:25:17;22.87;;;20.53;;
54897;SDS011;40800;52.704;6.398;2023-03-01T01:27:43;24.00;;;21.50;;
54897;SDS011;40800;52.704;6.398;2023-03-01T01:30:09;24.58;;;21.98;;
54897;SDS011;40800;52.704;6.398;2023-03-01T01:32:35;24.58;;;22.13;;
54897;SDS011;40800;52.704;6.398;2023-03-01T01:35:00;24.60;;;22.08;;
54897;SDS011;40800;52.704;6.398;2023-03-01T01:37:26;23.85;;;21.40;;
54897;SDS011;40800;52.704;6.398;2023-03-01T01:39:59;22.85;;;20.65;;
54897;SDS011;40800;52.704;6.398;2023-03-01T01:42:28;24.27;;;21.88;;
54897;SDS011;40800;52.704;6.398;2023-03-01T01:48:03;22.30;;;19.95;;
54897;SDS011;40800;52.704;6.398;2023-03-01T01:50:32;23.20;;;20.83;;
54897;SDS011;40800;52.704;6.398;2023-03-01T01:53:04;24.30;;;22.00;;
54897;SDS011;40800;52.704;6.398;2023-03-01T01:55:32;24.40;;;22.00;;
54897;SDS011;40800;52.704;6.398;2023-03-01T01:57:58;26.80;;;23.98;;
54897;SDS011;40800;52.704;6.398;2023-03-01T02:00:28;27.92;;;22.40;;
54897;SDS011;40800;52.704;6.398;2023-03-01T02:02:55;30.55;;;22.30;;
54897;SDS011;40800;52.704;6.398;2023-03-01T02:05:26;36.55;;;23.70;;
54897;SDS011;40800;52.704;6.398;2023-03-01T02:08:03;28.13;;;23.70;;
54897;SDS011;40800;52.704;6.398;2023-03-01T02:10:29;29.35;;;24.08;;
54897;SDS011;40800;52.704;6.398;2023-03-01T02:12:58;41.42;;;25.55;;
54897;SDS011;40800;52.704;6.398;2023-03-01T02:15:25;29.40;;;23.90;;
54897;SDS011;40800;52.704;6.398;2023-03-01T02:17:51;27.15;;;23.65;;
54897;SDS011;40800;52.704;6.398;2023-03-01T02:22:51;28.98;;;24.95;;
54897;SDS011;40800;52.704;6.398;2023-03-01T02:28:08;29.38;;;25.85;;
54897;SDS011;40800;52.704;6.398;2023-03-01T02:30:36;36.00;;;26.15;;
54897;SDS011;40800;52.704;6.398;2023-03-01T02:33:02;29.63;;;26.58;;
54897;SDS011;40800;52.704;6.398;2023-03-01T02:35:30;42.45;;;31.95;;
54897;SDS011;40800;52.704;6.398;2023-03-01T02:37:59;29.92;;;26.83;;
54897;SDS011;40800;52.704;6.398;2023-03-01T02:40:30;29.45;;;26.45;;
54897;SDS011;40800;52.704;6.398;2023-03-01T02:42:59;30.83;;;27.55;;
54897;SDS011;40800;52.704;6.398;2023-03-01T02:45:25;32.83;;;29.00;;
54897;SDS011;40800;52.704;6.398;2023-03-01T02:47:55;32.55;;;27.92;;
54897;SDS011;40800;52.704;6.398;2023-03-01T02:50:35;33.92;;;29.70;;
54897;SDS011;40800;52.704;6.398;2023-03-01T02:53:39;36.58;;;31.45;;
54897;SDS011;40800;52.704;6.398;2023-03-01T02:56:10;40.72;;;33.67;;
54897;SDS011;40800;52.704;6.398;2023-03-01T02:58:38;38.45;;;34.25;;
54897;SDS011;40800;52.704;6.398;2023-03-01T03:01:10;36.13;;;32.20;;
54897;SDS011;40800;52.704;6.398;2023-03-01T03:03:36;39.58;;;34.45;;
54897;SDS011;40800;52.704;6.398;2023-03-01T03:06:02;39.20;;;34.95;;
54897;SDS011;40800;52.704;6.398;2023-03-01T03:08:27;37.70;;;33.57;;
54897;SDS011;40800;52.704;6.398;2023-03-01T03:10:53;39.30;;;34.80;;
54897;SDS011;40800;52.704;6.398;2023-03-01T03:13:19;40.87;;;36.43;;
54897;SDS011;40800;52.704;6.398;2023-03-01T03:15:44;39.13;;;34.83;;
54897;SDS011;40800;52.704;6.398;2023-03-01T03:18:11;41.30;;;36.80;;
54897;SDS011;40800;52.704;6.398;2023-03-01T03:20:39;41.03;;;36.63;;
54897;SDS011;40800;52.704;6.398;2023-03-01T03:23:06;41.22;;;35.40;;
54897;SDS011;40800;52.704;6.398;2023-03-01T03:25:32;39.78;;;35.70;;
54897;SDS011;40800;52.704;6.398;2023-03-01T03:28:02;41.83;;;37.28;;
54897;SDS011;40800;52.704;6.398;2023-03-01T03:30:35;40.22;;;36.03;;
54897;SDS011;40800;52.704;6.398;2023-03-01T03:33:03;40.83;;;36.65;;
54897;SDS011;40800;52.704;6.398;2023-03-01T03:35:31;40.42;;;36.33;;
54897;SDS011;40800;52.704;6.398;2023-03-01T03:37:59;43.05;;;38.65;;
54897;SDS011;40800;52.704;6.398;2023-03-01T03:40:27;39.75;;;35.83;;
54897;SDS011;40800;52.704;6.398;2023-03-01T03:42:54;41.42;;;37.20;;
54897;SDS011;40800;52.704;6.398;2023-03-01T03:45:20;39.58;;;35.75;;
54897;SDS011;40800;52.704;6.398;2023-03-01T03:47:45;89.88;;;42.53;;
54897;SDS011;40800;52.704;6.398;2023-03-01T03:50:12;40.35;;;36.38;;
54897;SDS011;40800;52.704;6.398;2023-03-01T03:52:38;40.63;;;36.25;;
54897;SDS011;40800;52.704;6.398;2023-03-01T03:55:05;40.25;;;36.20;;
54897;SDS011;40800;52.704;6.398;2023-03-01T03:57:39;39.53;;;35.55;;
54897;SDS011;40800;52.704;6.398;2023-03-01T04:00:07;38.47;;;34.75;;
54897;SDS011;40800;52.704;6.398;2023-03-01T04:02:39;39.70;;;35.88;;
54897;SDS011;40800;52.704;6.398;2023-03-01T04:07:31;270.77;;;48.03;;
54897;SDS011;40800;52.704;6.398;2023-03-01T04:09:57;222.73;;;44.47;;
54897;SDS011;40800;52.704;6.398;2023-03-01T04:12:22;38.63;;;35.03;;
54897;SDS011;40800;52.704;6.398;2023-03-01T04:14:48;39.75;;;35.92;;
54897;SDS011;40800;52.704;6.398;2023-03-01T04:17:13;56.83;;;38.53;;
54897;SDS011;40800;52.704;6.398;2023-03-01T04:19:39;37.47;;;33.97;;
54897;SDS011;40800;52.704;6.398;2023-03-01T04:22:05;41.65;;;36.42;;
54897;SDS011;40800;52.704;6.398;2023-03-01T04:24:37;37.17;;;33.70;;
54897;SDS011;40800;52.704;6.398;2023-03-01T04:27:02;39.53;;;34.03;;
54897;SDS011;40800;52.704;6.398;2023-03-01T04:29:28;48.60;;;35.93;;
54897;SDS011;40800;52.704;6.398;2023-03-01T04:31:54;40.95;;;34.55;;
54897;SDS011;40800;52.704;6.398;2023-03-01T04:34:19;50.63;;;33.67;;
54897;SDS011;40800;52.704;6.398;2023-03-01T04:36:45;43.75;;;35.05;;
54897;SDS011;40800;52.704;6.398;2023-03-01T04:39:11;40.80;;;35.23;;
54897;SDS011;40800;52.704;6.398;2023-03-01T04:41:39;40.15;;;35.85;;
54897;SDS011;40800;52.704;6.398;2023-03-01T04:44:05;40.23;;;36.13;;
54897;SDS011;40800;52.704;6.398;2023-03-01T04:46:31;68.63;;;40.58;;
54897;SDS011;40800;52.704;6.398;2023-03-01T04:48:57;48.08;;;39.15;;
54897;SDS011;40800;52.704;6.398;2023-03-01T04:51:23;565.00;;;70.05;;
54897;SDS011;40800;52.704;6.398;2023-03-01T04:53:49;40.45;;;36.08;;
54897;SDS011;40800;52.704;6.398;2023-03-01T04:56:14;214.95;;;51.25;;
54897;SDS011;40800;52.704;6.398;2023-03-01T04:58:43;239.30;;;49.25;;
54897;SDS011;40800;52.704;6.398;2023-03-01T05:01:09;44.35;;;39.13;;
54897;SDS011;40800;52.704;6.398;2023-03-01T05:03:40;44.20;;;39.40;;
54897;SDS011;40800;52.704;6.398;2023-03-01T05:06:10;42.42;;;37.83;;
54897;SDS011;40800;52.704;6.398;2023-03-01T05:08:36;40.20;;;36.00;;
54897;SDS011;40800;52.704;6.398;2023-03-01T05:11:03;40.78;;;36.47;;
54897;SDS011;40800;52.704;6.398;2023-03-01T05:13:29;40.83;;;36.55;;
54897;SDS011;40800;52.704;6.398;2023-03-01T05:15:58;41.17;;;36.87;;
54897;SDS011;40800;52.704;6.398;2023-03-01T05:18:26;38.83;;;34.92;;
54897;SDS011;40800;52.704;6.398;2023-03-01T05:20:53;42.63;;;38.08;;
54897;SDS011;40800;52.704;6.398;2023-03-01T05:23:23;41.28;;;37.15;;
54897;SDS011;40800;52.704;6.398;2023-03-01T05:25:49;41.65;;;37.47;;
54897;SDS011;40800;52.704;6.398;2023-03-01T05:28:17;41.78;;;37.42;;
54897;SDS011;40800;52.704;6.398;2023-03-01T05:33:10;40.40;;;36.30;;
54897;SDS011;40800;52.704;6.398;2023-03-01T05:35:39;41.33;;;37.22;;
54897;SDS011;40800;52.704;6.398;2023-03-01T05:38:09;41.10;;;36.90;;
54897;SDS011;40800;52.704;6.398;2023-03-01T05:40:38;40.03;;;36.05;;
54897;SDS011;40800;52.704;6.398;2023-03-01T05:43:04;39.75;;;35.80;;
54897;SDS011;40800;52.704;6.398;2023-03-01T05:45:30;39.63;;;35.73;;
54897;SDS011;40800;52.704;6.398;2023-03-01T05:47:57;38.55;;;34.75;;
54897;SDS011;40800;52.704;6.398;2023-03-01T05:50:28;37.80;;;34.05;;
54897;SDS011;40800;52.704;6.398;2023-03-01T05:52:59;39.42;;;35.58;;
54897;SDS011;40800;52.704;6.398;2023-03-01T05:55:30;38.60;;;34.67;;
54897;SDS011;40800;52.704;6.398;2023-03-01T05:58:03;47.40;;;35.83;;
54897;SDS011;40800;52.704;6.398;2023-03-01T06:00:31;42.28;;;33.13;;
54897;SDS011;40800;52.704;6.398;2023-03-01T06:02:57;39.85;;;33.35;;
54897;SDS011;40800;52.704;6.398;2023-03-01T06:05:24;37.25;;;33.42;;
54897;SDS011;40800;52.704;6.398;2023-03-01T06:07:50;36.47;;;32.50;;
54897;SDS011;40800;52.704;6.398;2023-03-01T06:10:16;37.33;;;33.53;;
54897;SDS011;40800;52.704;6.398;2023-03-01T06:12:43;37.15;;;33.38;;
54897;SDS011;40800;52.704;6.398;2023-03-01T06:15:10;36.00;;;32.60;;
54897;SDS011;40800;52.704;6.398;2023-03-01T06:17:40;37.85;;;34.10;;
54897;SDS011;40800;52.704;6.398;2023-03-01T06:20:12;35.58;;;32.08;;
54897;SDS011;40800;52.704;6.398;2023-03-01T06:22:40;34.67;;;31.27;;
54897;SDS011;40800;52.704;6.398;2023-03-01T06:25:07;35.03;;;31.63;;
54897;SDS011;40800;52.704;6.398;2023-03-01T06:27:33;35.33;;;31.95;;
54897;SDS011;40800;52.704;6.398;2023-03-01T06:29:58;34.97;;;31.57;;
54897;SDS011;40800;52.704;6.398;2023-03-01T06:32:24;32.85;;;29.83;;
54897;SDS011;40800;52.704;6.398;2023-03-01T06:34:50;34.90;;;31.50;;
54897;SDS011;40800;52.704;6.398;2023-03-01T06:37:16;35.33;;;31.93;;
54897;SDS011;40800;52.704;6.398;2023-03-01T06:39:42;33.45;;;30.15;;
54897;SDS011;40800;52.704;6.398;2023-03-01T06:42:08;34.07;;;30.50;;
54897;SDS011;40800;52.704;6.398;2023-03-01T06:44:35;33.88;;;30.35;;
54897;SDS011;40800;52.704;6.398;2023-03-01T06:47:01;33.38;;;30.10;;
54897;SDS011;40800;52.704;6.398;2023-03-01T06:49:28;34.00;;;30.23;;
54897;SDS011;40800;52.704;6.398;2023-03-01T06:51:53;33.55;;;30.08;;
54897;SDS011;40800;52.704;6.398;2023-03-01T06:54:19;32.73;;;29.50;;
54897;SDS011;40800;52.704;6.398;2023-03-01T06:56:47;33.97;;;30.48;;
54897;SDS011;40800;52.704;6.398;2023-03-01T06:59:13;32.95;;;29.83;;
54897;SDS011;40800;52.704;6.398;2023-03-01T07:01:39;33.67;;;30.40;;
54897;SDS011;40800;52.704;6.398;2023-03-01T07:04:05;32.90;;;29.77;;
54897;SDS011;40800;52.704;6.398;2023-03-01T07:06:30;32.20;;;29.10;;
54897;SDS011;40800;52.704;6.398;2023-03-01T07:08:56;35.20;;;31.70;;
54897;SDS011;40800;52.704;6.398;2023-03-01T07:11:22;33.88;;;30.85;;
54897;SDS011;40800;52.704;6.398;2023-03-01T07:13:48;34.17;;;30.98;;
54897;SDS011;40800;52.704;6.398;2023-03-01T07:16:13;35.00;;;31.90;;
54897;SDS011;40800;52.704;6.398;2023-03-01T07:18:39;36.00;;;32.77;;
54897;SDS011;40800;52.704;6.398;2023-03-01T07:21:06;35.60;;;32.45;;
54897;SDS011;40800;52.704;6.398;2023-03-01T07:23:33;36.20;;;32.85;;
54897;SDS011;40800;52.704;6.398;2023-03-01T07:25:59;38.22;;;34.70;;
54897;SDS011;40800;52.704;6.398;2023-03-01T07:28:25;37.65;;;34.30;;
54897;SDS011;40800;52.704;6.398;2023-03-01T07:30:52;38.55;;;34.83;;
54897;SDS011;40800;52.704;6.398;2023-03-01T07:33:18;40.65;;;36.70;;
54897;SDS011;40800;52.704;6.398;2023-03-01T07:35:44;40.60;;;36.70;;
54897;SDS011;40800;52.704;6.398;2023-03-01T07:38:09;42.28;;;38.25;;
54897;SDS011;40800;52.704;6.398;2023-03-01T07:40:35;41.70;;;37.90;;
54897;SDS011;40800;52.704;6.398;2023-03-01T07:43:01;43.05;;;38.85;;
54897;SDS011;40800;52.704;6.398;2023-03-01T07:45:27;44.20;;;40.05;;
54897;SDS011;40800;52.704;6.398;2023-03-01T07:47:53;42.70;;;38.90;;
54897;SDS011;40800;52.704;6.398;2023-03-01T07:50:20;44.92;;;40.95;;
54897;SDS011;40800;52.704;6.398;2023-03-01T07:52:46;47.70;;;43.17;;
54897;SDS011;40800;52.704;6.398;2023-03-01T07:55:13;49.78;;;45.10;;
54897;SDS011;40800;52.704;6.398;2023-03-01T07:57:39;49.20;;;44.63;;
54897;SDS011;40800;52.704;6.398;2023-03-01T08:00:05;50.33;;;45.65;;
54897;SDS011;40800;52.704;6.398;2023-03-01T08:04:57;50.80;;;46.05;;
54897;SDS011;40800;52.704;6.398;2023-03-01T08:07:22;53.25;;;48.13;;
54897;SDS011;40800;52.704;6.398;2023-03-01T08:09:48;52.83;;;47.60;;
54897;SDS011;40800;52.704;6.398;2023-03-01T08:12:14;55.40;;;50.17;;
54897;SDS011;40800;52.704;6.398;2023-03-01T08:14:41;55.10;;;49.60;;
54897;SDS011;40800;52.704;6.398;2023-03-01T08:17:07;54.42;;;49.30;;
54897;SDS011;40800;52.704;6.398;2023-03-01T08:19:33;54.63;;;49.55;;
54897;SDS011;40800;52.704;6.398;2023-03-01T08:21:59;52.45;;;47.78;;
54897;SDS011;40800;52.704;6.398;2023-03-01T08:24:26;51.97;;;47.10;;
54897;SDS011;40800;52.704;6.398;2023-03-01T08:26:52;51.35;;;46.70;;
54897;SDS011;40800;52.704;6.398;2023-03-01T08:29:18;53.30;;;48.42;;
54897;SDS011;40800;52.704;6.398;2023-03-01T08:31:44;53.92;;;49.00;;
54897;SDS011;40800;52.704;6.398;2023-03-01T08:34:11;51.17;;;46.53;;
54897;SDS011;40800;52.704;6.398;2023-03-01T08:36:39;52.20;;;47.53;;
54897;SDS011;40800;52.704;6.398;2023-03-01T08:39:06;52.80;;;48.15;;
54897;SDS011;40800;52.704;6.398;2023-03-01T08:41:33;52.47;;;47.83;;
54897;SDS011;40800;52.704;6.398;2023-03-01T08:43:59;52.65;;;47.83;;
54897;SDS011;40800;52.704;6.398;2023-03-01T08:46:30;52.08;;;47.42;;
54897;SDS011;40800;52.704;6.398;2023-03-01T08:49:03;50.88;;;46.55;;
54897;SDS011;40800;52.704;6.398;2023-03-01T08:51:29;50.00;;;45.55;;
54897;SDS011;40800;52.704;6.398;2023-03-01T08:53:57;50.53;;;46.25;;
54897;SDS011;40800;52.704;6.398;2023-03-01T08:56:23;51.95;;;47.33;;
54897;SDS011;40800;52.704;6.398;2023-03-01T08:58:48;49.60;;;45.20;;
54897;SDS011;40800;52.704;6.398;2023-03-01T09:01:15;50.63;;;45.97;;
54897;SDS011;40800;52.704;6.398;2023-03-01T09:03:43;48.15;;;43.67;;
54897;SDS011;40800;52.704;6.398;2023-03-01T09:06:09;46.40;;;42.17;;
54897;SDS011;40800;52.704;6.398;2023-03-01T09:08:36;45.78;;;41.95;;
54897;SDS011;40800;52.704;6.398;2023-03-01T09:11:04;46.15;;;42.13;;
54897;SDS011;40800;52.704;6.398;2023-03-01T09:13:31;45.58;;;41.55;;
54897;SDS011;40800;52.704;6.398;2023-03-01T09:15:57;42.93;;;39.20;;
54897;SDS011;40800;52.704;6.398;2023-03-01T09:18:25;41.63;;;37.92;;
54897;SDS011;40800;52.704;6.398;2023-03-01T09:20:51;39.08;;;35.67;;
54897;SDS011;40800;52.704;6.398;2023-03-01T09:23:16;32.70;;;29.63;;
54897;SDS011;40800;52.704;6.398;2023-03-01T09:25:42;28.65;;;26.00;;
54897;SDS011;40800;52.704;6.398;2023-03-01T09:28:07;25.05;;;22.70;;
54897;SDS011;40800;52.704;6.398;2023-03-01T09:30:33;22.58;;;20.65;;
54897;SDS011;40800;52.704;6.398;2023-03-01T09:32:58;22.25;;;19.92;;
54897;SDS011;40800;52.704;6.398;2023-03-01T09:35:24;19.52;;;17.73;;
54897;SDS011;40800;52.704;6.398;2023-03-01T09:37:50;18.35;;;16.73;;
54897;SDS011;40800;52.704;6.398;2023-03-01T09:40:17;17.97;;;16.20;;
54897;SDS011;40800;52.704;6.398;2023-03-01T09:42:46;16.23;;;14.68;;
54897;SDS011;40800;52.704;6.398;2023-03-01T09:45:25;12.18;;;10.98;;
54897;SDS011;40800;52.704;6.398;2023-03-01T09:48:00;10.52;;;9.43;;
54897;SDS011;40800;52.704;6.398;2023-03-01T09:50:28;10.00;;;8.38;;
54897;SDS011;40800;52.704;6.398;2023-03-01T09:53:01;8.77;;;6.40;;
54897;SDS011;40800;52.704;6.398;2023-03-01T10:01:02;8.63;;;6.00;;
54897;SDS011;40800;52.704;6.398;2023-03-01T10:04:23;8.73;;;6.40;;
54897;SDS011;40800;52.704;6.398;2023-03-01T10:06:38;8.55;;;6.40;;
54897;SDS011;40800;52.704;6.398;2023-03-01T10:09:12;7.63;;;6.00;;
54897;SDS011;40800;52.704;6.398;2023-03-01T10:11:48;7.78;;;5.60;;
54897;SDS011;40800;52.704;6.398;2023-03-01T10:17:03;6.57;;;5.28;;
54897;SDS011;40800;52.704;6.398;2023-03-01T10:19:50;7.63;;;5.22;;
54897;SDS011;40800;52.704;6.398;2023-03-01T10:24:41;6.45;;;4.75;;
54897;SDS011;40800;52.704;6.398;2023-03-01T10:27:09;7.82;;;4.47;;
54897;SDS011;40800;52.704;6.398;2023-03-01T10:32:32;8.38;;;4.03;;
54897;SDS011;40800;52.704;6.398;2023-03-01T10:34:58;6.32;;;4.43;;
54897;SDS011;40800;52.704;6.398;2023-03-01T10:37:24;6.03;;;4.20;;
54897;SDS011;40800;52.704;6.398;2023-03-01T10:40:01;6.40;;;4.40;;
54897;SDS011;40800;52.704;6.398;2023-03-01T10:42:32;7.07;;;4.82;;
54897;SDS011;40800;52.704;6.398;2023-03-01T10:45:14;7.57;;;4.75;;
54897;SDS011;40800;52.704;6.398;2023-03-01T10:50:35;5.75;;;4.30;;
54897;SDS011;40800;52.704;6.398;2023-03-01T11:03:18;6.82;;;4.80;;
54897;SDS011;40800;52.704;6.398;2023-03-01T11:05:51;6.82;;;4.80;;
54897;SDS011;40800;52.704;6.398;2023-03-01T11:08:47;6.40;;;4.72;;
54897;SDS011;40800;52.704;6.398;2023-03-01T11:13:56;7.45;;;5.00;;
54897;SDS011;40800;52.704;6.398;2023-03-01T11:16:23;6.45;;;5.05;;
54897;SDS011;40800;52.704;6.398;2023-03-01T11:21:33;7.55;;;5.47;;
54897;SDS011;40800;52.704;6.398;2023-03-01T11:24:02;7.63;;;5.20;;
54897;SDS011;40800;52.704;6.398;2023-03-01T11:26:31;7.82;;;5.63;;
54897;SDS011;40800;52.704;6.398;2023-03-01T11:29:02;8.13;;;5.60;;
54897;SDS011;40800;52.704;6.398;2023-03-01T11:31:32;9.82;;;6.80;;
54897;SDS011;40800;52.704;6.398;2023-03-01T11:36:31;8.23;;;6.50;;
54897;SDS011;40800;52.704;6.398;2023-03-01T11:39:01;9.30;;;6.93;;
54897;SDS011;40800;52.704;6.398;2023-03-01T11:41:38;8.88;;;6.90;;
54897;SDS011;40800;52.704;6.398;2023-03-01T11:44:11;8.82;;;6.60;;
54897;SDS011;40800;52.704;6.398;2023-03-01T11:46:48;8.20;;;5.82;;
54897;SDS011;40800;52.704;6.398;2023-03-01T11:52:25;10.18;;;7.18;;
54897;SDS011;40800;52.704;6.398;2023-03-01T11:58:27;9.55;;;7.43;;
54897;SDS011;40800;52.704;6.398;2023-03-01T12:17:25;7.68;;;5.97;;
54897;SDS011;40800;52.704;6.398;2023-03-01T12:20:13;8.13;;;5.60;;
54897;SDS011;40800;52.704;6.398;2023-03-01T12:26:33;8.23;;;5.85;;
54897;SDS011;40800;52.704;6.398;2023-03-01T12:29:09;9.02;;;6.47;;
54897;SDS011;40800;52.704;6.398;2023-03-01T12:50:41;8.07;;;7.00;;
54897;SDS011;40800;52.704;6.398;2023-03-01T12:53:17;9.10;;;7.13;;
54897;SDS011;40800;52.704;6.398;2023-03-01T12:55:54;9.85;;;7.38;;
54897;SDS011;40800;52.704;6.398;2023-03-01T12:58:35;10.40;;;7.10;;
54897;SDS011;40800;52.704;6.398;2023-03-01T13:01:26;8.07;;;6.43;;
54897;SDS011;40800;52.704;6.398;2023-03-01T13:04:29;9.02;;;6.95;;
54897;SDS011;40800;52.704;6.398;2023-03-01T13:17:52;9.57;;;6.53;;
54897;SDS011;40800;52.704;6.398;2023-03-01T13:20:20;9.50;;;6.32;;
54897;SDS011;40800;52.704;6.398;2023-03-01T13:22:59;9.40;;;6.35;;
54897;SDS011;40800;52.704;6.398;2023-03-01T13:25:27;6.93;;;5.10;;
54897;SDS011;40800;52.704;6.398;2023-03-01T13:27:53;8.98;;;6.10;;
54897;SDS011;40800;52.704;6.398;2023-03-01T13:31:10;7.90;;;6.50;;
54897;SDS011;40800;52.704;6.398;2023-03-01T13:33:59;9.43;;;6.18;;
54897;SDS011;40800;52.704;6.398;2023-03-01T13:38:55;9.15;;;6.07;;
54897;SDS011;40800;52.704;6.398;2023-03-01T13:49:36;9.15;;;6.68;;
54897;SDS011;40800;52.704;6.398;2023-03-01T13:52:25;10.43;;;7.18;;
54897;SDS011;40800;52.704;6.398;2023-03-01T13:58:15;8.10;;;6.45;;
54897;SDS011;40800;52.704;6.398;2023-03-01T14:00:57;8.60;;;6.55;;
54897;SDS011;40800;52.704;6.398;2023-03-01T14:03:28;7.75;;;6.25;;
54897;SDS011;40800;52.704;6.398;2023-03-01T14:05:58;10.65;;;6.72;;
54897;SDS011;40800;52.704;6.398;2023-03-01T14:08:45;9.20;;;6.85;;
54897;SDS011;40800;52.704;6.398;2023-03-01T14:14:18;9.63;;;7.57;;
54897;SDS011;40800;52.704;6.398;2023-03-01T14:17:17;10.70;;;7.57;;
54897;SDS011;40800;52.704;6.398;2023-03-01T14:19:53;9.20;;;7.10;;
54897;SDS011;40800;52.704;6.398;2023-03-01T14:22:27;9.40;;;6.95;;
54897;SDS011;40800;52.704;6.398;2023-03-01T14:24:56;9.30;;;6.90;;
54897;SDS011;40800;52.704;6.398;2023-03-01T14:27:28;8.63;;;6.70;;
54897;SDS011;40800;52.704;6.398;2023-03-01T14:30:14;9.68;;;7.00;;
54897;SDS011;40800;52.704;6.398;2023-03-01T14:32:56;9.23;;;7.25;;
54897;SDS011;40800;52.704;6.398;2023-03-01T14:35:27;10.00;;;6.65;;
54897;SDS011;40800;52.704;6.398;2023-03-01T14:37:57;9.77;;;6.65;;
54897;SDS011;40800;52.704;6.398;2023-03-01T14:40:33;8.45;;;6.55;;
54897;SDS011;40800;52.704;6.398;2023-03-01T14:43:01;11.00;;;7.97;;
54897;SDS011;40800;52.704;6.398;2023-03-01T14:45:34;9.05;;;7.07;;
54897;SDS011;40800;52.704;6.398;2023-03-01T14:48:01;9.55;;;6.93;;
54897;SDS011;40800;52.704;6.398;2023-03-01T14:50:29;9.45;;;6.65;;
54897;SDS011;40800;52.704;6.398;2023-03-01T14:52:58;7.88;;;6.20;;
54897;SDS011;40800;52.704;6.398;2023-03-01T14:55:29;10.93;;;6.63;;
54897;SDS011;40800;52.704;6.398;2023-03-01T14:57:56;8.52;;;7.13;;
54897;SDS011;40800;52.704;6.398;2023-03-01T15:00:23;10.53;;;7.67;;
54897;SDS011;40800;52.704;6.398;2023-03-01T15:02:52;11.82;;;9.10;;
54897;SDS011;40800;52.704;6.398;2023-03-01T15:05:25;9.95;;;7.28;;
54897;SDS011;40800;52.704;6.398;2023-03-01T15:07:56;10.60;;;7.78;;
54897;SDS011;40800;52.704;6.398;2023-03-01T15:10:27;9.70;;;7.72;;
54897;SDS011;40800;52.704;6.398;2023-03-01T15:12:54;9.75;;;8.02;;
54897;SDS011;40800;52.704;6.398;2023-03-01T15:17:48;10.48;;;8.50;;
54897;SDS011;40800;52.704;6.398;2023-03-01T15:20:20;11.73;;;8.57;;
54897;SDS011;40800;52.704;6.398;2023-03-01T15:22:50;10.73;;;8.40;;
54897;SDS011;40800;52.704;6.398;2023-03-01T15:25:27;12.13;;;8.85;;
54897;SDS011;40800;52.704;6.398;2023-03-01T15:27:54;11.55;;;9.45;;
54897;SDS011;40800;52.704;6.398;2023-03-01T15:30:32;11.13;;;7.93;;
54897;SDS011;40800;52.704;6.398;2023-03-01T15:36:31;11.20;;;8.43;;
54897;SDS011;40800;52.704;6.398;2023-03-01T15:39:22;11.43;;;9.40;;
54897;SDS011;40800;52.704;6.398;2023-03-01T15:41:51;11.32;;;9.02;;
54897;SDS011;40800;52.704;6.398;2023-03-01T15:44:17;10.93;;;8.65;;
54897;SDS011;40800;52.704;6.398;2023-03-01T15:46:54;11.77;;;9.27;;
54897;SDS011;40800;52.704;6.398;2023-03-01T15:49:25;12.68;;;9.57;;
54897;SDS011;40800;52.704;6.398;2023-03-01T15:52:19;11.23;;;8.77;;
54897;SDS011;40800;52.704;6.398;2023-03-01T15:54:55;11.32;;;9.32;;
54897;SDS011;40800;52.704;6.398;2023-03-01T15:57:22;14.10;;;9.85;;
54897;SDS011;40800;52.704;6.398;2023-03-01T15:59:47;11.82;;;9.73;;
54897;SDS011;40800;52.704;6.398;2023-03-01T16:02:14;11.05;;;9.52;;
54897;SDS011;40800;52.704;6.398;2023-03-01T16:04:40;11.15;;;9.35;;
54897;SDS011;40800;52.704;6.398;2023-03-01T16:07:05;13.20;;;9.43;;
54897;SDS011;40800;52.704;6.398;2023-03-01T16:09:31;11.35;;;9.35;;
54897;SDS011;40800;52.704;6.398;2023-03-01T16:11:57;12.15;;;9.18;;
54897;SDS011;40800;52.704;6.398;2023-03-01T16:14:23;10.02;;;8.70;;
54897;SDS011;40800;52.704;6.398;2023-03-01T16:16:48;10.20;;;8.40;;
54897;SDS011;40800;52.704;6.398;2023-03-01T16:19:14;11.70;;;9.00;;
54897;SDS011;40800;52.704;6.398;2023-03-01T16:21:41;10.30;;;9.10;;
54897;SDS011;40800;52.704;6.398;2023-03-01T16:24:11;11.25;;;9.25;;
54897;SDS011;40800;52.704;6.398;2023-03-01T16:26:37;11.48;;;8.57;;
54897;SDS011;40800;52.704;6.398;2023-03-01T16:29:03;11.65;;;9.18;;
54897;SDS011;40800;52.704;6.398;2023-03-01T16:31:29;11.95;;;9.63;;
54897;SDS011;40800;52.704;6.398;2023-03-01T16:33:56;14.50;;;9.77;;
54897;SDS011;40800;52.704;6.398;2023-03-01T16:38:49;18.85;;;9.32;;
54897;SDS011;40800;52.704;6.398;2023-03-01T16:41:16;11.40;;;8.88;;
54897;SDS011;40800;52.704;6.398;2023-03-01T16:43:44;21.08;;;9.52;;
54897;SDS011;40800;52.704;6.398;2023-03-01T16:46:15;12.77;;;9.55;;
54897;SDS011;40800;52.704;6.398;2023-03-01T16:48:43;16.45;;;9.32;;
54897;SDS011;40800;52.704;6.398;2023-03-01T16:51:09;12.07;;;8.55;;
54897;SDS011;40800;52.704;6.398;2023-03-01T16:53:35;11.43;;;9.85;;
54897;SDS011;40800;52.704;6.398;2023-03-01T16:56:03;12.75;;;9.63;;